Malaysia Virtual Airlines Airport Information Service

Dubai International Airport

ICAO: OMDB Country: United Arab Emirates
Latitude: 25.2528 Longitude: 55.3644
Latest Arrival : MC160 (OPKC-OMDB) Latest Departure : MC18 (OMDB-WMKK)


WX CaptureLIVE
Data provided by noaa.gov | Fetched at 17:00:27

METAR : OMDB 261600Z VRB02KT CAVOK 38/22 Q0996 NOSIG

TAF : OMDB 261100Z 2612/2718 32012KT 7000 NSC BECMG 2618/2620 VRB02KT BECMG 2707/2709 30012KT BECMG 2716/2718 VRB02KT


Runway Data for OMDB
Data provided by openaviationdata.com

Runway ID Mag Var Hdg Length Elevation Surface ILS Freq ILS Id ILS Slope
12L 1 119° 13143 ft 34 ft Asphalt 110.1 IDBL 3
12R 1 119° 14606 ft 34 ft Asphalt 109.5 IDBE 3
30L 1 299° 14606 ft 34 ft Asphalt 111.3 IDBW 3
30R 1 299° 13143 ft 34 ft Asphalt 110.9 IDBR 3

Dubai International Airport, United Arab Emirates
Use only for reference purposes



Not for navigational purposes.